Soaring Guidance
Issued by NWS Reno, NV

Home | Current Version | Previous Version | Text Only | Print | Product List | Glossary On
Versions: 1 2 3 4 5 6 7 8 9 10 11 12 13
000
UXUS97 KREV 281448
SRGREV

SOARING FORECAST
NATIONAL WEATHER SERVICE - RENO NV
700 AM PST SAT FEB 28 2015

THIS SOARING FORECAST IS FOR THE EASTERN SIERRA AND WESTERN NEVADA
WITH SPECIFIC INDICES FOR THE GREATER RENO AREA.

THIS FORECAST IS NOT UPDATED.

FOR CURRENT FLIGHT CONDITIONS...FORECASTS...AND ADVISORIES...ACCESS
YOUR LOCAL BRIEFING OUTLET OR FLIGHT SERVICE STATION.

*******************************************************************
LOCAL INDICES FOR RENO:                   TODAY     YESTERDAY
MAXIMUM TEMPERATURE AT RENO...(DEG F)...     45
TRIGGER TEMPERATURE...........(DEG F)...     40          46
   EXCEEDED YESTERDAY BY 18Z
MAXIMUM ALTITUDE..............(FT MSL)..  11900       14200
SOARING INDEX.................(FPM).....    567         876
FORECASTED K-INDEX.........VALID 18Z....     27          28
FORECASTED K-INDEX.........VALID 00Z....     26          29
FORECASTED LIFTED INDEX....VALID 18Z....      1           1
FORECASTED LIFTED INDEX....VALID 00Z....      1           0

AFTERNOON WINDS ALOFT FORECAST
MSL (FT) WIND/TEMP
9000  0316/-07
10000 0316/-09
12000 0417/-13
14000 0416/-17
16000 0515/-22
18000 0611/-27
24000 0712/-41
30000 2606/-48
34000 2717/-46
39000 2821/-46

SLIDE MOUNTAIN DATA:
 SLD HR 1350 M 16/14/2809/M  /SLIDE MTN UNOFFICIAL OBSERVATION

RENO TAF FORECAST:
KRNO 281247Z 2813/0112 VRB03KT 4SM BR SCT015 BKN030
     FM281400 VRB04KT 2SM -SN FEW006 BKN011
     FM281700 35007KT 5SM -SHSN FEW010 BKN020
     FM282000 01010KT P6SM VCSH FEW025 BKN035
     FM010100 35007KT P6SM OVC030

CARSON CITY TAF FORECAST:
KCXP 281140Z 2812/0112 00000KT 1SM -SN BKN003 OVC007
     FM281500 VRB04KT 2SM -SN SCT005 OVC012
     FM282000 01007KT 6SM -SHSN SCT015 BKN025
     FM010100 35005KT P6SM OVC028

OUTLOOK FOR THE RENO-CARSON CITY-MINDEN AREA:
.SUNDAY...MOSTLY CLOUDY IN THE MORNING THEN BECOMING PARTLY
CLOUDY. ISOLATED SNOW SHOWERS. HIGHS 44 TO 49. NORTHEAST WINDS
AROUND 10 MPH.

SUNRISE AND SUNSET
FEBRUARY 28 2015......SUNRISE   634 AM PST   SUNSET   550 PM PST
MARCH  1 2015.........SUNRISE   632 AM PST   SUNSET   551 PM PST



THIS PRODUCT IS ROUTINELY PREPARED BY 700 AM AND IS
DISTRIBUTED TO THE RENO FLIGHT SERVICE STATION AS WELL AS THE
NATIONAL WEATHER SERVICE WORLD WIDE WEB HOMEPAGE AT:
       HTTP://WWW.WEATHER.GOV/RENO





USA.gov is the U.S. government's official web portal to all federal, state and local government web resources and services.